sensor_id;sensor_type;location;lat;lon;timestamp;pressure;altitude;pressure_sealevel;temperature;humidity
56006;BME280;41888;44.696;10.522;2023-03-20T00:00:34;100853.47;;;10.30;100.00
56006;BME280;41888;44.696;10.522;2023-03-20T00:03:01;100861.50;;;10.15;100.00
56006;BME280;41888;44.696;10.522;2023-03-20T00:05:29;100855.81;;;10.18;100.00
56006;BME280;41888;44.696;10.522;2023-03-20T00:07:56;100863.63;;;10.20;100.00
56006;BME280;41888;44.696;10.522;2023-03-20T00:10:34;100858.31;;;10.20;100.00
56006;BME280;41888;44.696;10.522;2023-03-20T00:13:02;100861.50;;;10.15;100.00
56006;BME280;41888;44.696;10.522;2023-03-20T00:15:42;100863.34;;;10.14;100.00
56006;BME280;41888;44.696;10.522;2023-03-20T00:18:18;100856.19;;;10.15;100.00
56006;BME280;41888;44.696;10.522;2023-03-20T00:20:54;100859.34;;;10.04;100.00
56006;BME280;41888;44.696;10.522;2023-03-20T00:23:20;100851.63;;;10.09;100.00
56006;BME280;41888;44.696;10.522;2023-03-20T00:25:47;100853.47;;;10.08;100.00
56006;BME280;41888;44.696;10.522;2023-03-20T00:31:04;100851.25;;;10.12;100.00
56006;BME280;41888;44.696;10.522;2023-03-20T00:33:31;100856.19;;;10.15;100.00
56006;BME280;41888;44.696;10.522;2023-03-20T00:35:57;100861.16;;;10.18;100.00
56006;BME280;41888;44.696;10.522;2023-03-20T00:38:24;100847.66;;;10.20;100.00
56006;BME280;41888;44.696;10.522;2023-03-20T00:40:51;100857.09;;;10.22;100.00
56006;BME280;41888;44.696;10.522;2023-03-20T00:43:17;100856.06;;;10.23;100.00
56006;BME280;41888;44.696;10.522;2023-03-20T00:45:44;100854.19;;;10.17;100.00
56006;BME280;41888;44.696;10.522;2023-03-20T00:48:14;100852.16;;;10.19;100.00
56006;BME280;41888;44.696;10.522;2023-03-20T00:50:41;100846.19;;;10.17;100.00
56006;BME280;41888;44.696;10.522;2023-03-20T00:53:10;100848.03;;;10.16;100.00
56006;BME280;41888;44.696;10.522;2023-03-20T00:55:37;100845.19;;;10.18;100.00
56006;BME280;41888;44.696;10.522;2023-03-20T00:58:04;100844.78;;;10.21;100.00
56006;BME280;41888;44.696;10.522;2023-03-20T01:00:49;100836.44;;;10.24;100.00
56006;BME280;41888;44.696;10.522;2023-03-20T01:03:17;100839.09;;;10.24;100.00
56006;BME280;41888;44.696;10.522;2023-03-20T01:05:44;100843.41;;;10.25;100.00
56006;BME280;41888;44.696;10.522;2023-03-20T01:08:20;100841.59;;;10.26;100.00
56006;BME280;41888;44.696;10.522;2023-03-20T01:10:49;100840.13;;;10.23;100.00
56006;BME280;41888;44.696;10.522;2023-03-20T01:13:24;100844.78;;;10.21;100.00
56006;BME280;41888;44.696;10.522;2023-03-20T01:15:52;100833.72;;;10.18;100.00
56006;BME280;41888;44.696;10.522;2023-03-20T01:18:20;100826.00;;;10.23;100.00
56006;BME280;41888;44.696;10.522;2023-03-20T01:20:47;100827.25;;;10.27;100.00
56006;BME280;41888;44.696;10.522;2023-03-20T01:23:14;100816.19;;;10.23;100.00
56006;BME280;41888;44.696;10.522;2023-03-20T01:25:40;100817.59;;;10.19;100.00
56006;BME280;41888;44.696;10.522;2023-03-20T01:28:16;100809.78;;;10.18;100.00
56006;BME280;41888;44.696;10.522;2023-03-20T01:30:44;100824.94;;;10.17;100.00
56006;BME280;41888;44.696;10.522;2023-03-20T01:33:21;100824.34;;;10.22;100.00
56006;BME280;41888;44.696;10.522;2023-03-20T01:35:49;100815.75;;;10.20;100.00
56006;BME280;41888;44.696;10.522;2023-03-20T01:41:04;100827.59;;;10.17;100.00
56006;BME280;41888;44.696;10.522;2023-03-20T01:43:33;100818.97;;;10.15;100.00
56006;BME280;41888;44.696;10.522;2023-03-20T01:51:19;100814.84;;;10.12;100.00
56006;BME280;41888;44.696;10.522;2023-03-20T01:53:58;100816.66;;;10.12;100.00
56006;BME280;41888;44.696;10.522;2023-03-20T01:56:29;100810.72;;;10.10;100.00
56006;BME280;41888;44.696;10.522;2023-03-20T01:59:04;100807.03;;;10.11;100.00
56006;BME280;41888;44.696;10.522;2023-03-20T02:01:33;100801.94;;;10.09;100.00
56006;BME280;41888;44.696;10.522;2023-03-20T02:04:01;100805.63;;;10.08;100.00
56006;BME280;41888;44.696;10.522;2023-03-20T02:06:28;100805.41;;;10.10;100.00
56006;BME280;41888;44.696;10.522;2023-03-20T02:08:54;100806.22;;;10.10;100.00
56006;BME280;41888;44.696;10.522;2023-03-20T02:11:23;100800.06;;;10.10;100.00
56006;BME280;41888;44.696;10.522;2023-03-20T02:13:53;100807.44;;;10.08;100.00
56006;BME280;41888;44.696;10.522;2023-03-20T02:16:20;100802.56;;;10.11;100.00
56006;BME280;41888;44.696;10.522;2023-03-20T02:18:48;100800.34;;;10.15;100.00
56006;BME280;41888;44.696;10.522;2023-03-20T02:24:40;100797.63;;;10.08;100.00
56006;BME280;41888;44.696;10.522;2023-03-20T02:27:18;100793.03;;;9.96;100.00
56006;BME280;41888;44.696;10.522;2023-03-20T02:44:02;100798.91;;;9.91;100.00
56006;BME280;41888;44.696;10.522;2023-03-20T02:47:01;100789.75;;;9.94;100.00
56006;BME280;41888;44.696;10.522;2023-03-20T02:51:59;100796.31;;;9.98;100.00
56006;BME280;41888;44.696;10.522;2023-03-20T02:57:35;100790.59;;;10.01;100.00
56006;BME280;41888;44.696;10.522;2023-03-20T02:59:57;100794.16;;;10.08;100.00
56006;BME280;41888;44.696;10.522;2023-03-20T03:02:50;100787.81;;;10.09;100.00
56006;BME280;41888;44.696;10.522;2023-03-20T03:05:26;100787.81;;;10.09;100.00
56006;BME280;41888;44.696;10.522;2023-03-20T03:07:57;100787.81;;;10.09;100.00
56006;BME280;41888;44.696;10.522;2023-03-20T03:10:29;100789.06;;;10.13;100.00
56006;BME280;41888;44.696;10.522;2023-03-20T03:12:58;100789.06;;;10.13;100.00
56006;BME280;41888;44.696;10.522;2023-03-20T03:15:28;100791.09;;;10.11;100.00
56006;BME280;41888;44.696;10.522;2023-03-20T03:17:58;100779.63;;;10.10;100.00
56006;BME280;41888;44.696;10.522;2023-03-20T03:20:28;100775.97;;;10.11;100.00
56006;BME280;41888;44.696;10.522;2023-03-20T03:22:55;100782.50;;;10.09;100.00
56006;BME280;41888;44.696;10.522;2023-03-20T03:25:25;100778.56;;;10.05;100.00
56006;BME280;41888;44.696;10.522;2023-03-20T03:28:22;100786.53;;;10.05;100.00
56006;BME280;41888;44.696;10.522;2023-03-20T03:30:51;100789.44;;;10.10;100.00
56006;BME280;41888;44.696;10.522;2023-03-20T03:33:28;100784.41;;;10.15;100.00
56006;BME280;41888;44.696;10.522;2023-03-20T03:38:44;100774.53;;;10.09;100.00
56006;BME280;41888;44.696;10.522;2023-03-20T03:41:19;100779.84;;;10.09;100.00
56006;BME280;41888;44.696;10.522;2023-03-20T03:43:52;100778.81;;;10.10;100.00
56006;BME280;41888;44.696;10.522;2023-03-20T03:48:50;100778.03;;;10.09;100.00
56006;BME280;41888;44.696;10.522;2023-03-20T03:51:22;100776.56;;;10.07;100.00
56006;BME280;41888;44.696;10.522;2023-03-20T03:53:53;100783.69;;;10.06;100.00
56006;BME280;41888;44.696;10.522;2023-03-20T03:56:24;100782.69;;;10.07;100.00
56006;BME280;41888;44.696;10.522;2023-03-20T03:58:58;100780.03;;;10.07;100.00
56006;BME280;41888;44.696;10.522;2023-03-20T04:01:26;100780.03;;;10.07;100.00
56006;BME280;41888;44.696;10.522;2023-03-20T04:03:56;100772.00;;;10.01;100.00
56006;BME280;41888;44.696;10.522;2023-03-20T04:06:27;100772.63;;;10.03;100.00
56006;BME280;41888;44.696;10.522;2023-03-20T04:08:53;100775.91;;;10.05;100.00
56006;BME280;41888;44.696;10.522;2023-03-20T04:11:22;100778.78;;;10.03;100.00
56006;BME280;41888;44.696;10.522;2023-03-20T04:13:50;100782.81;;;9.99;100.00
56006;BME280;41888;44.696;10.522;2023-03-20T04:16:18;100770.94;;;9.95;100.00
56006;BME280;41888;44.696;10.522;2023-03-20T04:18:45;100772.81;;;10.01;100.00
56006;BME280;41888;44.696;10.522;2023-03-20T04:21:12;100777.50;;;9.99;100.00
56006;BME280;41888;44.696;10.522;2023-03-20T04:23:39;100782.03;;;9.99;100.00
56006;BME280;41888;44.696;10.522;2023-03-20T04:26:05;100778.78;;;10.03;100.00
56006;BME280;41888;44.696;10.522;2023-03-20T04:28:32;100787.59;;;10.04;100.00
56006;BME280;41888;44.696;10.522;2023-03-20T04:31:00;100789.41;;;10.03;100.00
56006;BME280;41888;44.696;10.522;2023-03-20T04:33:27;100791.84;;;10.05;100.00
56006;BME280;41888;44.696;10.522;2023-03-20T04:35:54;100781.88;;;10.07;100.00
56006;BME280;41888;44.696;10.522;2023-03-20T04:38:21;100789.75;;;9.94;100.00
56006;BME280;41888;44.696;10.522;2023-03-20T04:40:49;100788.97;;;10.00;100.00
56006;BME280;41888;44.696;10.522;2023-03-20T04:43:16;100789.78;;;10.00;100.00
56006;BME280;41888;44.696;10.522;2023-03-20T04:45:42;100789.78;;;10.00;100.00
56006;BME280;41888;44.696;10.522;2023-03-20T04:48:09;100791.44;;;10.01;100.00
56006;BME280;41888;44.696;10.522;2023-03-20T04:50:35;100793.91;;;10.03;100.00
56006;BME280;41888;44.696;10.522;2023-03-20T04:53:01;100791.25;;;10.03;100.00
56006;BME280;41888;44.696;10.522;2023-03-20T04:55:28;100794.72;;;10.03;100.00
56006;BME280;41888;44.696;10.522;2023-03-20T04:57:54;100783.03;;;9.98;100.00
56006;BME280;41888;44.696;10.522;2023-03-20T05:00:20;100789.41;;;10.03;100.00
56006;BME280;41888;44.696;10.522;2023-03-20T05:02:47;100792.41;;;9.94;100.00
56006;BME280;41888;44.696;10.522;2023-03-20T05:05:13;100795.88;;;9.94;100.00
56006;BME280;41888;44.696;10.522;2023-03-20T05:07:39;100793.19;;;9.94;100.00
56006;BME280;41888;44.696;10.522;2023-03-20T05:10:06;100787.72;;;9.96;100.00
56006;BME280;41888;44.696;10.522;2023-03-20T05:12:32;100792.13;;;9.89;100.00
56006;BME280;41888;44.696;10.522;2023-03-20T05:14:59;100786.38;;;9.85;100.00
56006;BME280;41888;44.696;10.522;2023-03-20T05:17:25;100795.19;;;9.86;100.00
56006;BME280;41888;44.696;10.522;2023-03-20T05:19:51;100792.53;;;9.86;100.00
56006;BME280;41888;44.696;10.522;2023-03-20T05:22:18;100796.59;;;9.82;100.00
56006;BME280;41888;44.696;10.522;2023-03-20T05:24:44;100801.72;;;9.83;100.00
56006;BME280;41888;44.696;10.522;2023-03-20T05:27:11;100800.50;;;9.86;100.00
56006;BME280;41888;44.696;10.522;2023-03-20T05:29:37;100805.16;;;9.84;100.00
56006;BME280;41888;44.696;10.522;2023-03-20T05:32:03;100811.72;;;9.81;100.00
56006;BME280;41888;44.696;10.522;2023-03-20T05:34:30;100806.38;;;9.81;100.00
56006;BME280;41888;44.696;10.522;2023-03-20T05:36:56;100816.69;;;9.91;100.00
56006;BME280;41888;44.696;10.522;2023-03-20T05:39:22;100814.03;;;9.91;100.00
56006;BME280;41888;44.696;10.522;2023-03-20T05:41:48;100821.94;;;9.84;100.00
56006;BME280;41888;44.696;10.522;2023-03-20T05:44:15;100821.38;;;9.89;100.00
56006;BME280;41888;44.696;10.522;2023-03-20T05:46:41;100823.22;;;9.88;100.00
56006;BME280;41888;44.696;10.522;2023-03-20T05:49:07;100825.69;;;9.90;100.00
56006;BME280;41888;44.696;10.522;2023-03-20T05:51:34;100821.81;;;9.92;100.00
56006;BME280;41888;44.696;10.522;2023-03-20T05:54:00;100824.47;;;9.92;100.00
56006;BME280;41888;44.696;10.522;2023-03-20T05:56:26;100818.16;;;9.93;100.00
56006;BME280;41888;44.696;10.522;2023-03-20T05:58:52;100832.88;;;9.96;100.00
56006;BME280;41888;44.696;10.522;2023-03-20T06:01:19;100825.75;;;9.96;100.00
56006;BME280;41888;44.696;10.522;2023-03-20T06:03:47;100836.19;;;9.98;100.00
56006;BME280;41888;44.696;10.522;2023-03-20T06:06:14;100838.22;;;9.96;100.00
56006;BME280;41888;44.696;10.522;2023-03-20T06:08:41;100831.50;;;10.00;100.00
56006;BME280;41888;44.696;10.522;2023-03-20T06:11:08;100838.59;;;9.93;100.00
56006;BME280;41888;44.696;10.522;2023-03-20T06:13:34;100841.44;;;9.91;100.00
56006;BME280;41888;44.696;10.522;2023-03-20T06:16:01;100845.75;;;9.92;100.00
56006;BME280;41888;44.696;10.522;2023-03-20T06:18:28;100840.69;;;9.97;100.00
56006;BME280;41888;44.696;10.522;2023-03-20T06:20:55;100840.44;;;9.92;100.00
56006;BME280;41888;44.696;10.522;2023-03-20T06:23:22;100842.25;;;9.92;100.00
56006;BME280;41888;44.696;10.522;2023-03-20T06:25:48;100848.22;;;9.94;100.00
56006;BME280;41888;44.696;10.522;2023-03-20T06:28:15;100845.81;;;9.99;100.00
56006;BME280;41888;44.696;10.522;2023-03-20T06:30:42;100843.09;;;9.92;100.00
56006;BME280;41888;44.696;10.522;2023-03-20T06:33:09;100846.50;;;9.86;100.00
56006;BME280;41888;44.696;10.522;2023-03-20T06:35:35;100849.22;;;9.71;100.00
56006;BME280;41888;44.696;10.522;2023-03-20T06:38:02;100855.81;;;9.75;100.00
56006;BME280;41888;44.696;10.522;2023-03-20T06:40:28;100860.78;;;9.85;100.00
56006;BME280;41888;44.696;10.522;2023-03-20T06:42:55;100861.06;;;9.90;100.00
56006;BME280;41888;44.696;10.522;2023-03-20T06:45:22;100867.84;;;9.93;100.00
56006;BME280;41888;44.696;10.522;2023-03-20T06:47:48;100867.00;;;9.92;100.00
56006;BME280;41888;44.696;10.522;2023-03-20T06:50:14;100872.50;;;9.91;100.00
56006;BME280;41888;44.696;10.522;2023-03-20T06:52:41;100871.88;;;9.89;100.00
56006;BME280;41888;44.696;10.522;2023-03-20T06:55:08;100875.56;;;9.88;100.00
56006;BME280;41888;44.696;10.522;2023-03-20T06:57:34;100876.44;;;9.95;100.00
56006;BME280;41888;44.696;10.522;2023-03-20T07:00:02;100874.41;;;9.97;100.00
56006;BME280;41888;44.696;10.522;2023-03-20T07:02:29;100880.75;;;9.96;100.00
56006;BME280;41888;44.696;10.522;2023-03-20T07:04:55;100877.31;;;10.02;100.00
56006;BME280;41888;44.696;10.522;2023-03-20T07:07:21;100875.56;;;10.09;100.00
56006;BME280;41888;44.696;10.522;2023-03-20T07:09:48;100883.28;;;10.04;100.00
56006;BME280;41888;44.696;10.522;2023-03-20T07:12:15;100884.25;;;10.18;100.00
56006;BME280;41888;44.696;10.522;2023-03-20T07:14:44;100885.13;;;10.25;100.00
56006;BME280;41888;44.696;10.522;2023-03-20T07:17:12;100884.94;;;10.26;100.00
56006;BME280;41888;44.696;10.522;2023-03-20T07:19:38;100888.66;;;10.32;100.00
56006;BME280;41888;44.696;10.522;2023-03-20T07:22:06;100877.25;;;10.38;100.00
56006;BME280;41888;44.696;10.522;2023-03-20T07:24:34;100881.38;;;10.40;100.00
56006;BME280;41888;44.696;10.522;2023-03-20T07:27:00;100897.13;;;10.42;100.00
56006;BME280;41888;44.696;10.522;2023-03-20T07:29:27;100892.63;;;10.42;100.00
56006;BME280;41888;44.696;10.522;2023-03-20T07:31:53;100896.19;;;10.49;100.00
56006;BME280;41888;44.696;10.522;2023-03-20T07:34:19;100900.09;;;10.53;100.00
56006;BME280;41888;44.696;10.522;2023-03-20T07:36:45;100899.97;;;10.62;100.00
56006;BME280;41888;44.696;10.522;2023-03-20T07:39:13;100897.72;;;10.65;100.00
56006;BME280;41888;44.696;10.522;2023-03-20T07:41:39;100906.78;;;10.71;100.00
56006;BME280;41888;44.696;10.522;2023-03-20T07:44:05;100909.84;;;10.68;100.00
56006;BME280;41888;44.696;10.522;2023-03-20T07:46:33;100908.19;;;10.67;100.00
56006;BME280;41888;44.696;10.522;2023-03-20T07:48:59;100911.63;;;10.61;100.00
56006;BME280;41888;44.696;10.522;2023-03-20T07:51:25;100909.97;;;10.59;100.00
56006;BME280;41888;44.696;10.522;2023-03-20T07:53:52;100915.94;;;10.62;100.00
56006;BME280;41888;44.696;10.522;2023-03-20T07:56:18;100917.53;;;10.56;100.00
56006;BME280;41888;44.696;10.522;2023-03-20T07:58:44;100921.00;;;10.56;100.00
56006;BME280;41888;44.696;10.522;2023-03-20T08:01:10;100923.69;;;10.56;100.00
56006;BME280;41888;44.696;10.522;2023-03-20T08:03:36;100934.31;;;10.56;100.00
56006;BME280;41888;44.696;10.522;2023-03-20T08:06:04;100929.00;;;10.56;100.00
56006;BME280;41888;44.696;10.522;2023-03-20T08:08:32;100935.94;;;10.57;100.00
56006;BME280;41888;44.696;10.522;2023-03-20T08:10:59;100930.00;;;10.55;100.00
56006;BME280;41888;44.696;10.522;2023-03-20T08:13:25;100932.28;;;10.58;100.00
56006;BME280;41888;44.696;10.522;2023-03-20T08:15:51;100938.00;;;10.55;100.00
56006;BME280;41888;44.696;10.522;2023-03-20T08:18:17;100938.41;;;10.59;100.00
56006;BME280;41888;44.696;10.522;2023-03-20T08:20:45;100934.31;;;10.56;100.00
56006;BME280;41888;44.696;10.522;2023-03-20T08:23:11;100940.47;;;10.57;100.00
56006;BME280;41888;44.696;10.522;2023-03-20T08:25:37;100936.81;;;10.65;100.00
56006;BME280;41888;44.696;10.522;2023-03-20T08:28:03;100942.66;;;10.53;100.00
56006;BME280;41888;44.696;10.522;2023-03-20T08:30:30;100940.47;;;10.57;100.00
56006;BME280;41888;44.696;10.522;2023-03-20T08:32:56;100944.31;;;10.54;100.00
56006;BME280;41888;44.696;10.522;2023-03-20T08:35:24;100942.31;;;10.56;100.00
56006;BME280;41888;44.696;10.522;2023-03-20T08:37:50;100937.31;;;10.75;100.00
56006;BME280;41888;44.696;10.522;2023-03-20T08:40:16;100941.72;;;10.89;100.00
56006;BME280;41888;44.696;10.522;2023-03-20T08:42:43;100937.66;;;10.93;100.00
56006;BME280;41888;44.696;10.522;2023-03-20T08:45:09;100937.84;;;10.91;100.00
56006;BME280;41888;44.696;10.522;2023-03-20T08:47:36;100933.16;;;10.93;100.00
56006;BME280;41888;44.696;10.522;2023-03-20T08:50:02;100935.28;;;11.05;100.00
56006;BME280;41888;44.696;10.522;2023-03-20T08:52:29;100943.56;;;11.23;100.00
56006;BME280;41888;44.696;10.522;2023-03-20T08:54:55;100940.13;;;11.29;100.00
56006;BME280;41888;44.696;10.522;2023-03-20T08:57:22;100944.22;;;11.25;100.00
56006;BME280;41888;44.696;10.522;2023-03-20T08:59:48;100944.41;;;11.23;100.00
56006;BME280;41888;44.696;10.522;2023-03-20T09:02:15;100937.69;;;11.34;100.00
56006;BME280;41888;44.696;10.522;2023-03-20T09:04:41;100941.28;;;11.54;100.00
56006;BME280;41888;44.696;10.522;2023-03-20T09:07:07;100942.69;;;11.50;100.00
56006;BME280;41888;44.696;10.522;2023-03-20T09:09:34;100948.88;;;11.64;100.00
56006;BME280;41888;44.696;10.522;2023-03-20T09:12:01;100947.50;;;11.68;100.00
56006;BME280;41888;44.696;10.522;2023-03-20T09:14:27;100949.75;;;11.71;100.00
56006;BME280;41888;44.696;10.522;2023-03-20T09:16:54;100951.75;;;11.56;100.00
56006;BME280;41888;44.696;10.522;2023-03-20T09:19:20;100958.75;;;11.70;100.00
56006;BME280;41888;44.696;10.522;2023-03-20T09:21:46;100951.47;;;11.78;100.00
56006;BME280;41888;44.696;10.522;2023-03-20T09:24:13;100951.78;;;11.69;100.00
56006;BME280;41888;44.696;10.522;2023-03-20T09:26:40;100956.34;;;11.75;100.00
56006;BME280;41888;44.696;10.522;2023-03-20T09:29:06;100964.59;;;11.87;100.00
56006;BME280;41888;44.696;10.522;2023-03-20T09:31:32;100967.47;;;11.85;100.00
56006;BME280;41888;44.696;10.522;2023-03-20T09:33:59;100963.50;;;11.68;100.00
56006;BME280;41888;44.696;10.522;2023-03-20T09:36:25;100964.28;;;11.62;100.00
56006;BME280;41888;44.696;10.522;2023-03-20T09:38:51;100965.44;;;11.53;100.00
56006;BME280;41888;44.696;10.522;2023-03-20T09:41:22;100972.88;;;11.57;100.00
56006;BME280;41888;44.696;10.522;2023-03-20T09:49:26;100970.69;;;11.74;100.00
56006;BME280;41888;44.696;10.522;2023-03-20T09:51:59;100966.56;;;11.71;100.00
56006;BME280;41888;44.696;10.522;2023-03-20T09:54:36;100976.06;;;11.80;100.00
56006;BME280;41888;44.696;10.522;2023-03-20T09:57:04;100961.09;;;11.73;100.00
56006;BME280;41888;44.696;10.522;2023-03-20T09:59:33;100974.41;;;11.79;100.00
56006;BME280;41888;44.696;10.522;2023-03-20T10:04:58;100976.38;;;12.05;100.00
56006;BME280;41888;44.696;10.522;2023-03-20T10:07:25;100970.44;;;12.23;100.00
56006;BME280;41888;44.696;10.522;2023-03-20T10:09:51;100973.38;;;12.54;100.00
56006;BME280;41888;44.696;10.522;2023-03-20T10:12:46;100970.91;;;12.73;100.00
56006;BME280;41888;44.696;10.522;2023-03-20T10:18:22;100962.69;;;13.20;100.00
56006;BME280;41888;44.696;10.522;2023-03-20T10:25:58;100958.38;;;13.19;100.00
56006;BME280;41888;44.696;10.522;2023-03-20T10:28:35;100960.06;;;13.71;100.00
56006;BME280;41888;44.696;10.522;2023-03-20T10:31:27;100967.84;;;13.79;100.00
56006;BME280;41888;44.696;10.522;2023-03-20T10:36:39;100958.41;;;13.70;100.00
56006;BME280;41888;44.696;10.522;2023-03-20T10:41:45;100953.91;;;14.09;100.00
56006;BME280;41888;44.696;10.522;2023-03-20T10:44:18;100948.44;;;14.85;100.00
56006;BME280;41888;44.696;10.522;2023-03-20T10:46:50;100950.72;;;15.42;100.00
56006;BME280;41888;44.696;10.522;2023-03-20T10:51:59;100945.31;;;15.97;100.00
56006;BME280;41888;44.696;10.522;2023-03-20T10:54:40;100935.94;;;15.88;100.00
56006;BME280;41888;44.696;10.522;2023-03-20T10:57:24;100940.00;;;15.42;100.00
56006;BME280;41888;44.696;10.522;2023-03-20T10:59:55;100937.50;;;15.95;100.00
56006;BME280;41888;44.696;10.522;2023-03-20T11:02:26;100938.00;;;16.04;100.00
56006;BME280;41888;44.696;10.522;2023-03-20T11:04:53;100936.03;;;16.11;100.00
56006;BME280;41888;44.696;10.522;2023-03-20T11:07:24;100931.94;;;16.09;100.00
56006;BME280;41888;44.696;10.522;2023-03-20T11:10:08;100931.13;;;16.08;100.00
56006;BME280;41888;44.696;10.522;2023-03-20T11:12:43;100925.53;;;15.80;100.00
56006;BME280;41888;44.696;10.522;2023-03-20T11:15:31;100925.84;;;15.72;100.00
56006;BME280;41888;44.696;10.522;2023-03-20T11:18:05;100924.50;;;15.44;100.00
56006;BME280;41888;44.696;10.522;2023-03-20T11:20:49;100923.31;;;15.40;100.00
56006;BME280;41888;44.696;10.522;2023-03-20T11:23:24;100930.66;;;15.08;100.00
56006;BME280;41888;44.696;10.522;2023-03-20T11:25:57;100934.28;;;14.77;100.00
56006;BME280;41888;44.696;10.522;2023-03-20T11:28:36;100924.47;;;14.40;100.00
56006;BME280;41888;44.696;10.522;2023-03-20T11:33:39;100914.44;;;14.29;100.00
56006;BME280;41888;44.696;10.522;2023-03-20T11:38:49;100914.22;;;14.30;100.00
56006;BME280;41888;44.696;10.522;2023-03-20T11:41:26;100918.81;;;14.55;100.00
56006;BME280;41888;44.696;10.522;2023-03-20T11:43:53;100906.16;;;14.87;100.00
56006;BME280;41888;44.696;10.522;2023-03-20T11:46:22;100904.53;;;14.61;100.00
56006;BME280;41888;44.696;10.522;2023-03-20T11:49:03;100896.50;;;14.61;100.00
56006;BME280;41888;44.696;10.522;2023-03-20T11:51:31;100903.56;;;14.55;100.00
56006;BME280;41888;44.696;10.522;2023-03-20T11:54:02;100892.63;;;15.36;100.00
56006;BME280;41888;44.696;10.522;2023-03-20T11:56:32;100894.03;;;16.17;100.00
56006;BME280;41888;44.696;10.522;2023-03-20T11:59:19;100896.84;;;15.80;100.00
56006;BME280;41888;44.696;10.522;2023-03-20T12:01:49;100891.22;;;15.70;100.00
56006;BME280;41888;44.696;10.522;2023-03-20T12:04:38;100881.94;;;15.54;100.00
56006;BME280;41888;44.696;10.522;2023-03-20T12:07:21;100887.50;;;16.24;100.00
56006;BME280;41888;44.696;10.522;2023-03-20T12:12:50;100874.63;;;17.43;100.00
56006;BME280;41888;44.696;10.522;2023-03-20T12:15:29;100872.69;;;17.26;96.74
56006;BME280;41888;44.696;10.522;2023-03-20T12:25:36;100864.31;;;16.88;99.88
56006;BME280;41888;44.696;10.522;2023-03-20T12:28:32;100872.97;;;16.43;100.00
56006;BME280;41888;44.696;10.522;2023-03-20T12:36:45;100860.78;;;16.18;100.00
56006;BME280;41888;44.696;10.522;2023-03-20T12:39:21;100854.19;;;16.67;100.00
56006;BME280;41888;44.696;10.522;2023-03-20T12:45:18;100852.50;;;17.12;94.53
56006;BME280;41888;44.696;10.522;2023-03-20T12:50:43;100844.94;;;16.86;100.00
56006;BME280;41888;44.696;10.522;2023-03-20T12:58:46;100837.03;;;17.19;100.00
56006;BME280;41888;44.696;10.522;2023-03-20T13:01:35;100839.06;;;17.12;100.00
56006;BME280;41888;44.696;10.522;2023-03-20T13:06:59;100848.63;;;16.15;100.00
56006;BME280;41888;44.696;10.522;2023-03-20T13:17:14;100841.31;;;15.81;100.00
56006;BME280;41888;44.696;10.522;2023-03-20T13:27:55;100825.22;;;15.92;100.00
56006;BME280;41888;44.696;10.522;2023-03-20T13:38:58;100829.69;;;15.57;100.00
56006;BME280;41888;44.696;10.522;2023-03-20T13:41:26;100822.16;;;15.47;100.00
56006;BME280;41888;44.696;10.522;2023-03-20T13:43:57;100824.00;;;14.99;100.00
56006;BME280;41888;44.696;10.522;2023-03-20T13:51:50;100820.25;;;15.66;100.00
56006;BME280;41888;44.696;10.522;2023-03-20T13:57:14;100817.28;;;15.08;100.00
56006;BME280;41888;44.696;10.522;2023-03-20T14:07:42;100808.38;;;16.62;100.00
56006;BME280;41888;44.696;10.522;2023-03-20T14:13:00;100808.25;;;16.92;100.00
56006;BME280;41888;44.696;10.522;2023-03-20T14:15:31;100819.44;;;15.95;100.00
56006;BME280;41888;44.696;10.522;2023-03-20T14:18:13;100808.84;;;16.12;100.00
56006;BME280;41888;44.696;10.522;2023-03-20T14:20:41;100814.22;;;16.12;100.00
56006;BME280;41888;44.696;10.522;2023-03-20T14:23:17;100809.31;;;16.32;100.00
56006;BME280;41888;44.696;10.522;2023-03-20T14:25:47;100810.13;;;16.44;100.00
56006;BME280;41888;44.696;10.522;2023-03-20T14:30:44;100807.19;;;16.46;100.00
56006;BME280;41888;44.696;10.522;2023-03-20T14:38:51;100805.78;;;17.30;93.48
56006;BME280;41888;44.696;10.522;2023-03-20T14:41:36;100801.78;;;17.04;96.77
56006;BME280;41888;44.696;10.522;2023-03-20T14:44:22;100795.31;;;17.45;94.80
56006;BME280;41888;44.696;10.522;2023-03-20T14:51:49;100802.00;;;17.43;91.80
56006;BME280;41888;44.696;10.522;2023-03-20T14:56:51;100804.50;;;17.33;91.86
56006;BME280;41888;44.696;10.522;2023-03-20T14:59:19;100796.19;;;17.34;92.31
56006;BME280;41888;44.696;10.522;2023-03-20T15:04:34;100804.50;;;17.33;93.33
56006;BME280;41888;44.696;10.522;2023-03-20T15:07:13;100798.72;;;17.12;93.77
56006;BME280;41888;44.696;10.522;2023-03-20T15:09:45;100803.25;;;16.37;97.46
56006;BME280;41888;44.696;10.522;2023-03-20T15:12:15;100803.22;;;16.25;100.00
56006;BME280;41888;44.696;10.522;2023-03-20T15:14:57;100805.88;;;15.31;100.00
56006;BME280;41888;44.696;10.522;2023-03-20T15:17:44;100809.50;;;15.36;100.00
56006;BME280;41888;44.696;10.522;2023-03-20T15:20:22;100801.78;;;15.88;100.00
56006;BME280;41888;44.696;10.522;2023-03-20T15:22:51;100802.81;;;15.87;100.00
56006;BME280;41888;44.696;10.522;2023-03-20T15:25:20;100795.91;;;15.49;100.00
56006;BME280;41888;44.696;10.522;2023-03-20T15:27:47;100796.81;;;15.61;100.00